createdAt,value
2023-03-05T00:00:25.787Z,60.58
2023-03-05T00:01:15.374Z,60.18
2023-03-05T00:01:54.940Z,59.81
2023-03-05T00:02:37.192Z,59.64
2023-03-05T00:03:16.235Z,60.51
2023-03-05T00:03:56.578Z,59.85
2023-03-05T00:04:37.166Z,59.22
2023-03-05T00:06:14.945Z,59.61
2023-03-05T00:06:55.920Z,59.33
2023-03-05T00:07:36.220Z,60.02
2023-03-05T00:08:15.231Z,59.76
2023-03-05T00:08:53.836Z,60.30
2023-03-05T00:09:59.197Z,59.26
2023-03-05T00:10:38.913Z,60.13
2023-03-05T00:11:18.151Z,60.04
2023-03-05T00:13:32.677Z,59.91
2023-03-05T00:14:12.241Z,59.38
2023-03-05T00:14:52.195Z,59.69
2023-03-05T00:15:34.168Z,59.14
2023-03-05T00:16:12.961Z,59.56
2023-03-05T00:17:17.288Z,59.34
2023-03-05T00:18:38.175Z,59.29
2023-03-05T00:20:04.530Z,60.39
2023-03-05T00:20:44.193Z,60.07
2023-03-05T00:21:29.322Z,59.85
2023-03-05T00:22:17.230Z,59.20
2023-03-05T00:22:56.111Z,60.15
2023-03-05T00:23:47.957Z,59.88
2023-03-05T00:24:28.309Z,59.61
2023-03-05T00:25:07.630Z,59.06
2023-03-05T00:25:50.123Z,59.78
2023-03-05T00:26:29.364Z,59.99
2023-03-05T00:27:09.059Z,59.74
2023-03-05T00:27:48.064Z,60.23
2023-03-05T00:28:27.164Z,59.99
2023-03-05T00:29:21.871Z,60.15
2023-03-05T00:30:01.111Z,59.17
2023-03-05T00:30:41.988Z,58.62
2023-03-05T00:31:25.534Z,58.74
2023-03-05T00:33:06.833Z,59.15
2023-03-05T00:33:46.425Z,58.71
2023-03-05T00:35:03.248Z,59.08
2023-03-05T00:36:15.080Z,59.80
2023-03-05T00:36:53.862Z,59.52
2023-03-05T00:37:33.160Z,59.30
2023-03-05T00:38:14.850Z,59.20
2023-03-05T00:39:20.105Z,59.37
2023-03-05T00:41:29.114Z,59.43
2023-03-05T00:42:18.331Z,59.62
2023-03-05T00:43:56.042Z,60.31
2023-03-05T00:44:38.110Z,59.95
2023-03-05T00:45:19.779Z,61.47
2023-03-05T00:45:58.141Z,60.38
2023-03-05T00:46:40.602Z,59.93
2023-03-05T00:47:23.165Z,59.85
2023-03-05T00:48:05.353Z,59.97
2023-03-05T00:48:47.301Z,60.25
2023-03-05T00:49:35.972Z,61.17
2023-03-05T00:50:16.787Z,61.42
2023-03-05T00:50:59.217Z,60.20
2023-03-05T00:51:38.284Z,60.12
2023-03-05T00:52:21.336Z,60.26
2023-03-05T00:53:00.104Z,61.42
2023-03-05T00:53:39.131Z,60.45
2023-03-05T00:54:17.908Z,60.40
2023-03-05T00:54:57.365Z,59.68
2023-03-05T00:57:07.980Z,60.60
2023-03-05T00:57:48.334Z,60.76
2023-03-05T01:00:22.736Z,61.15
2023-03-05T01:01:12.080Z,60.25
2023-03-05T01:01:52.143Z,59.74
2023-03-05T01:02:33.728Z,60.61
2023-03-05T01:03:14.138Z,60.03
2023-03-05T01:03:53.256Z,60.28
2023-03-05T01:04:32.688Z,59.83
2023-03-05T01:06:10.856Z,60.01
2023-03-05T01:06:50.566Z,60.19
2023-03-05T01:09:05.130Z,59.90
2023-03-05T01:09:46.437Z,60.05
2023-03-05T01:10:27.020Z,60.18
2023-03-05T01:11:07.151Z,59.89
2023-03-05T01:11:54.798Z,60.38
2023-03-05T01:13:32.139Z,60.15
2023-03-05T01:14:11.923Z,60.20
2023-03-05T01:14:51.816Z,60.31
2023-03-05T01:15:40.781Z,60.18
2023-03-05T01:16:19.887Z,61.20
2023-03-05T01:17:01.033Z,60.15
2023-03-05T01:17:41.638Z,59.56
2023-03-05T01:18:22.470Z,60.05
2023-03-05T01:19:11.549Z,61.31
2023-03-05T01:19:50.643Z,60.08
2023-03-05T01:20:33.013Z,59.60
2023-03-05T01:21:11.792Z,60.33
2023-03-05T01:21:52.239Z,61.25
2023-03-05T01:22:34.736Z,61.12
2023-03-05T01:23:16.915Z,60.33
2023-03-05T01:23:58.933Z,60.10
2023-03-05T01:24:40.292Z,59.45
2023-03-05T01:25:21.051Z,59.63
2023-03-05T01:26:08.728Z,59.53
2023-03-05T01:26:48.335Z,60.39
2023-03-05T01:27:27.772Z,59.16
2023-03-05T01:28:07.020Z,59.78
2023-03-05T01:28:46.769Z,59.21
2023-03-05T01:29:27.266Z,58.50
2023-03-05T01:30:11.964Z,59.10
2023-03-05T01:30:51.102Z,58.37
2023-03-05T01:31:38.976Z,58.54
2023-03-05T01:33:13.517Z,59.53
2023-03-05T01:33:55.395Z,59.49
2023-03-05T01:35:24.931Z,60.27
2023-03-05T01:37:16.495Z,59.29
2023-03-05T01:38:22.044Z,58.92
2023-03-05T01:39:02.849Z,58.82
2023-03-05T01:39:44.778Z,59.33
2023-03-05T01:40:23.537Z,59.50
2023-03-05T01:41:03.777Z,58.71
2023-03-05T01:41:45.422Z,58.55
2023-03-05T01:42:35.677Z,59.50
2023-03-05T01:43:15.617Z,58.68
2023-03-05T01:44:35.418Z,59.04
2023-03-05T01:45:18.885Z,58.57
2023-03-05T01:46:13.863Z,58.89
2023-03-05T01:46:56.113Z,58.73
2023-03-05T01:47:41.211Z,59.14
2023-03-05T01:48:20.477Z,58.96
2023-03-05T01:49:21.173Z,58.94
2023-03-05T01:50:13.927Z,58.23
2023-03-05T01:50:55.842Z,58.33
2023-03-05T01:51:42.144Z,58.31
2023-03-05T01:52:27.630Z,58.74
2023-03-05T01:53:08.681Z,58.36
2023-03-05T01:53:48.305Z,58.27
2023-03-05T01:54:28.489Z,58.69
2023-03-05T01:55:20.070Z,58.40
2023-03-05T01:56:53.546Z,58.57
2023-03-05T01:57:52.372Z,58.95
2023-03-05T01:58:32.837Z,58.97
2023-03-05T02:00:01.336Z,59.45
2023-03-05T02:00:52.424Z,58.93
2023-03-05T02:02:52.118Z,58.98
2023-03-05T02:03:34.440Z,58.41
2023-03-05T02:04:24.137Z,58.44
2023-03-05T02:05:04.815Z,59.16
2023-03-05T02:05:51.614Z,58.83
2023-03-05T02:06:33.462Z,58.85
2023-03-05T02:07:15.839Z,58.79
2023-03-05T02:07:58.643Z,58.07
2023-03-05T02:08:38.140Z,58.23
2023-03-05T02:09:42.408Z,58.59
2023-03-05T02:12:22.413Z,57.83
2023-03-05T02:13:40.859Z,57.32
2023-03-05T02:14:24.497Z,57.77
2023-03-05T02:15:05.334Z,57.95
2023-03-05T02:16:36.067Z,58.35
2023-03-05T02:17:16.307Z,58.00
2023-03-05T02:18:03.689Z,58.65
2023-03-05T02:18:44.074Z,58.03
2023-03-05T02:19:23.943Z,58.49
2023-03-05T02:20:21.337Z,59.21
2023-03-05T02:21:09.989Z,59.15
2023-03-05T02:21:52.021Z,59.73
2023-03-05T02:22:43.575Z,59.28
2023-03-05T02:23:26.251Z,59.17
2023-03-05T02:24:06.325Z,58.72
2023-03-05T02:24:45.711Z,58.88
2023-03-05T02:25:35.098Z,58.34
2023-03-05T02:26:18.497Z,58.37
2023-03-05T02:27:06.684Z,58.84
2023-03-05T02:28:00.350Z,58.60
2023-03-05T02:28:49.722Z,59.11
2023-03-05T02:29:31.941Z,58.44
2023-03-05T02:30:13.284Z,58.62
2023-03-05T02:30:54.703Z,59.50
2023-03-05T02:31:34.957Z,59.12
2023-03-05T02:32:23.703Z,58.46
2023-03-05T02:33:05.885Z,59.09
2023-03-05T02:33:47.459Z,58.10
2023-03-05T02:35:05.138Z,57.78
2023-03-05T02:35:47.928Z,58.00
2023-03-05T02:36:51.325Z,57.90
2023-03-05T02:40:14.076Z,58.42
2023-03-05T02:40:54.966Z,58.51
2023-03-05T02:42:24.704Z,57.70
2023-03-05T02:43:05.188Z,59.04
2023-03-05T02:43:44.936Z,59.03
2023-03-05T02:44:24.959Z,58.72
2023-03-05T02:45:12.437Z,58.21
2023-03-05T02:45:56.486Z,58.89
2023-03-05T02:46:35.308Z,58.64
2023-03-05T02:47:22.649Z,59.45
2023-03-05T02:48:09.680Z,58.92
2023-03-05T02:48:50.198Z,59.55
2023-03-05T02:49:39.597Z,58.88
2023-03-05T02:50:28.851Z,58.84
2023-03-05T02:51:32.132Z,58.62
2023-03-05T02:52:11.453Z,59.85
2023-03-05T02:52:58.701Z,59.41
2023-03-05T02:53:38.802Z,59.61
2023-03-05T02:54:21.254Z,60.32
2023-03-05T02:55:01.193Z,59.59
2023-03-05T02:55:50.945Z,58.87
2023-03-05T02:56:32.859Z,59.27
2023-03-05T02:57:12.766Z,59.00
2023-03-05T02:57:59.673Z,59.32
2023-03-05T02:58:42.107Z,59.60
2023-03-05T02:59:29.709Z,60.13
2023-03-05T03:00:09.634Z,58.91
2023-03-05T03:00:48.722Z,59.66
2023-03-05T03:01:29.898Z,58.86
2023-03-05T03:02:18.588Z,58.77
2023-03-05T03:02:59.453Z,58.59
2023-03-05T03:04:26.773Z,57.16
2023-03-05T03:05:09.657Z,57.24
2023-03-05T03:06:02.698Z,58.05
2023-03-05T03:06:42.139Z,58.33
2023-03-05T03:07:21.855Z,59.01
2023-03-05T03:08:10.766Z,60.03
2023-03-05T03:08:59.778Z,59.44
2023-03-05T03:09:39.169Z,59.77
2023-03-05T03:10:19.970Z,59.84
2023-03-05T03:11:15.209Z,60.13
2023-03-05T03:11:54.985Z,59.32
2023-03-05T03:12:38.928Z,59.28
2023-03-05T03:13:18.908Z,59.65
2023-03-05T03:15:30.790Z,59.72
2023-03-05T03:16:14.201Z,60.31
2023-03-05T03:17:18.946Z,58.99
2023-03-05T03:18:00.979Z,59.22
2023-03-05T03:18:49.788Z,58.92
2023-03-05T03:19:32.009Z,58.70
2023-03-05T03:20:17.232Z,59.45
2023-03-05T03:20:56.740Z,60.32
2023-03-05T03:21:42.618Z,60.02
2023-03-05T03:22:24.768Z,60.62
2023-03-05T03:23:07.419Z,60.59
2023-03-05T03:23:46.989Z,60.04
2023-03-05T03:24:39.228Z,59.40
2023-03-05T03:25:21.403Z,60.21
2023-03-05T03:27:55.753Z,59.18
2023-03-05T03:28:35.329Z,59.86
2023-03-05T03:29:17.864Z,58.86
2023-03-05T03:30:37.083Z,58.85
2023-03-05T03:32:59.482Z,59.87
2023-03-05T03:34:19.583Z,60.52
2023-03-05T03:34:59.984Z,60.83
2023-03-05T03:35:41.895Z,61.04
2023-03-05T03:36:23.823Z,60.13
2023-03-05T03:37:03.838Z,59.95
2023-03-05T03:37:55.587Z,60.49
2023-03-05T03:38:34.798Z,59.94
2023-03-05T03:39:15.218Z,59.40
2023-03-05T03:39:56.534Z,58.91
2023-03-05T03:40:37.555Z,59.14
2023-03-05T03:43:16.905Z,60.09
2023-03-05T03:44:36.880Z,59.54
2023-03-05T03:45:16.384Z,59.37
2023-03-05T03:45:56.979Z,59.71
2023-03-05T03:47:57.707Z,60.42
2023-03-05T03:48:49.618Z,60.20
2023-03-05T03:49:29.752Z,60.53
2023-03-05T03:50:33.336Z,59.68
2023-03-05T03:51:12.431Z,60.02
2023-03-05T03:51:54.831Z,59.40
2023-03-05T03:53:14.376Z,60.28
2023-03-05T03:54:35.045Z,60.03
2023-03-05T03:57:10.661Z,61.36
2023-03-05T03:58:37.627Z,61.37
2023-03-05T03:59:26.809Z,61.06
2023-03-05T04:00:12.896Z,60.65
2023-03-05T04:00:54.814Z,60.52
2023-03-05T04:01:34.513Z,61.41
2023-03-05T04:02:15.148Z,60.23
2023-03-05T04:03:47.652Z,59.82
2023-03-05T04:04:36.636Z,60.03
2023-03-05T04:05:18.902Z,61.18
2023-03-05T04:05:57.932Z,60.26
2023-03-05T04:06:40.490Z,60.10
2023-03-05T04:07:22.754Z,60.47
2023-03-05T04:08:01.814Z,61.19
2023-03-05T04:08:53.795Z,61.22
2023-03-05T04:09:32.766Z,60.94
2023-03-05T04:10:12.628Z,61.16
2023-03-05T04:11:04.906Z,60.77
2023-03-05T04:12:08.228Z,60.17
2023-03-05T04:13:27.980Z,60.29
2023-03-05T04:14:10.043Z,61.17
2023-03-05T04:14:50.076Z,61.00
2023-03-05T04:15:38.960Z,61.00
2023-03-05T04:16:22.039Z,60.44
2023-03-05T04:17:01.371Z,61.21
2023-03-05T04:18:05.211Z,60.78
2023-03-05T04:19:32.600Z,61.93
2023-03-05T04:20:36.181Z,62.16
2023-03-05T04:22:56.893Z,62.08
2023-03-05T04:24:30.529Z,62.83
2023-03-05T04:25:10.935Z,61.97
2023-03-05T04:25:53.609Z,62.71
2023-03-05T04:26:34.236Z,63.18
2023-03-05T04:27:17.694Z,63.28
2023-03-05T04:29:09.734Z,62.31
2023-03-05T04:29:49.909Z,62.86
2023-03-05T04:30:44.026Z,63.08
2023-03-05T04:32:33.866Z,63.95
2023-03-05T04:33:14.199Z,64.18
2023-03-05T04:33:53.997Z,62.97
2023-03-05T04:34:44.732Z,63.51
2023-03-05T04:36:59.252Z,64.63
2023-03-05T04:37:45.705Z,64.61
2023-03-05T04:38:27.512Z,64.33
2023-03-05T04:39:15.664Z,64.41
2023-03-05T04:40:57.338Z,65.45
2023-03-05T04:42:17.703Z,66.00
2023-03-05T04:43:21.404Z,65.99
2023-03-05T04:44:53.723Z,66.54
2023-03-05T04:45:34.499Z,66.51
2023-03-05T04:46:14.155Z,66.10
2023-03-05T04:46:57.866Z,66.12
2023-03-05T04:49:55.701Z,67.12
2023-03-05T04:50:59.494Z,66.80
2023-03-05T04:51:38.547Z,66.89
2023-03-05T04:52:18.842Z,67.83
2023-03-05T04:53:01.626Z,67.35
2023-03-05T04:53:41.823Z,67.88
2023-03-05T04:54:22.686Z,67.25
2023-03-05T04:55:02.826Z,67.62
2023-03-05T04:55:54.993Z,68.77
2023-03-05T04:56:37.215Z,68.77
2023-03-05T04:57:17.261Z,68.38
2023-03-05T04:57:58.968Z,68.82
2023-03-05T04:59:41.526Z,69.69
2023-03-05T05:00:20.397Z,68.82
2023-03-05T05:01:05.675Z,69.40
2023-03-05T05:02:09.530Z,70.06
2023-03-05T05:03:26.900Z,69.52
2023-03-05T05:08:16.657Z,70.27
2023-03-05T05:08:54.957Z,70.03
2023-03-05T05:09:43.305Z,71.01
2023-03-05T05:11:06.682Z,70.58
2023-03-05T05:11:53.409Z,71.02
2023-03-05T05:12:36.319Z,70.61
2023-03-05T05:13:16.454Z,70.82
2023-03-05T05:14:02.589Z,70.92
2023-03-05T05:15:07.418Z,70.68
2023-03-05T05:17:11.719Z,71.33
2023-03-05T05:18:54.351Z,71.68
2023-03-05T05:19:34.176Z,70.92
2023-03-05T05:20:18.968Z,71.61
2023-03-05T05:20:59.555Z,70.89
2023-03-05T05:21:38.691Z,71.07
2023-03-05T05:22:20.048Z,70.84
2023-03-05T05:23:07.396Z,70.23
2023-03-05T05:23:55.358Z,70.80
2023-03-05T05:24:34.499Z,70.57
2023-03-05T05:25:21.381Z,70.42
2023-03-05T05:26:02.263Z,70.73
2023-03-05T05:26:42.546Z,70.28
2023-03-05T05:27:45.876Z,69.68
2023-03-05T05:29:10.383Z,70.99
2023-03-05T05:29:53.133Z,70.79
2023-03-05T05:30:56.805Z,70.71
2023-03-05T05:32:27.718Z,70.38
2023-03-05T05:33:35.325Z,68.76
2023-03-05T05:34:22.485Z,70.26
2023-03-05T05:36:41.561Z,69.47
2023-03-05T05:37:21.386Z,68.56
2023-03-05T05:38:25.402Z,68.67
2023-03-05T05:41:12.559Z,68.12
2023-03-05T05:41:53.910Z,68.41
2023-03-05T05:42:34.688Z,68.79
2023-03-05T05:43:23.349Z,68.00
2023-03-05T05:44:11.796Z,67.70
2023-03-05T05:44:55.567Z,68.42
2023-03-05T05:45:45.325Z,67.33
2023-03-05T05:46:26.019Z,67.85
2023-03-05T05:47:16.463Z,68.13
2023-03-05T05:47:56.984Z,68.03
2023-03-05T05:49:18.250Z,67.98
2023-03-05T05:50:43.399Z,68.52
2023-03-05T05:51:46.930Z,68.83
2023-03-05T05:52:26.386Z,68.32
2023-03-05T05:53:06.545Z,67.67
2023-03-05T05:54:12.741Z,68.67
2023-03-05T05:56:20.571Z,68.97
2023-03-05T05:56:59.651Z,69.25
2023-03-05T05:57:39.284Z,68.66
2023-03-05T05:58:43.979Z,68.79
2023-03-05T06:00:45.175Z,70.24
2023-03-05T06:01:37.393Z,70.71
2023-03-05T06:02:42.161Z,70.63
2023-03-05T06:04:45.481Z,70.78
2023-03-05T06:06:28.106Z,69.58
2023-03-05T06:07:57.121Z,69.93
2023-03-05T06:08:42.586Z,70.10
2023-03-05T06:10:16.091Z,70.04
2023-03-05T06:12:14.892Z,69.00
2023-03-05T06:13:04.142Z,69.62
2023-03-05T06:14:47.245Z,70.43
2023-03-05T06:16:01.695Z,70.55
2023-03-05T06:17:31.052Z,70.06
2023-03-05T06:18:19.318Z,70.34
2023-03-05T06:19:07.232Z,69.75
2023-03-05T06:20:11.028Z,69.70
2023-03-05T06:21:16.648Z,69.50
2023-03-05T06:22:39.189Z,68.78
2023-03-05T06:23:28.581Z,69.38
2023-03-05T06:24:08.147Z,68.80
2023-03-05T06:24:50.756Z,68.57
2023-03-05T06:26:56.425Z,68.52
2023-03-05T06:27:37.046Z,68.23
2023-03-05T06:28:18.154Z,68.32
2023-03-05T06:29:07.414Z,67.88
2023-03-05T06:29:56.770Z,68.55
2023-03-05T06:31:58.655Z,67.38
2023-03-05T06:33:20.578Z,68.76
2023-03-05T06:34:45.443Z,67.54
2023-03-05T06:35:24.600Z,68.53
2023-03-05T06:36:18.354Z,67.82
2023-03-05T06:37:22.185Z,66.85
2023-03-05T06:38:44.662Z,67.61
2023-03-05T06:39:23.757Z,68.15
2023-03-05T06:40:15.602Z,66.72
2023-03-05T06:41:09.562Z,66.72
2023-03-05T06:42:27.583Z,66.56
2023-03-05T06:43:13.464Z,67.53
2023-03-05T06:43:53.301Z,67.55
2023-03-05T06:44:56.708Z,65.96
2023-03-05T06:47:15.808Z,66.71
2023-03-05T06:47:55.513Z,66.75
2023-03-05T06:48:37.780Z,65.06
2023-03-05T06:49:26.462Z,65.17
2023-03-05T06:50:15.438Z,63.95
2023-03-05T06:50:57.741Z,65.41
2023-03-05T06:51:39.775Z,65.14
2023-03-05T06:52:18.628Z,66.21
2023-03-05T06:53:00.633Z,66.07
2023-03-05T06:54:06.188Z,66.17
2023-03-05T06:55:26.752Z,64.50
2023-03-05T06:56:46.858Z,62.33
2023-03-05T06:59:17.844Z,64.16
2023-03-05T07:00:37.543Z,64.09
2023-03-05T07:01:21.442Z,63.92
2023-03-05T07:02:01.569Z,64.30
2023-03-05T07:02:53.529Z,64.60
2023-03-05T07:03:35.425Z,65.47
2023-03-05T07:04:14.244Z,65.73
2023-03-05T07:05:01.425Z,66.32
2023-03-05T07:05:41.940Z,66.33
2023-03-05T07:06:46.235Z,65.33
2023-03-05T07:08:46.151Z,64.98
2023-03-05T07:09:33.637Z,64.98
2023-03-05T07:10:13.920Z,65.05
2023-03-05T07:10:56.728Z,65.07
2023-03-05T07:11:37.101Z,65.27
2023-03-05T07:12:19.597Z,65.41
2023-03-05T07:13:11.447Z,65.11
2023-03-05T07:14:01.152Z,65.00
2023-03-05T07:14:53.178Z,65.71
2023-03-05T07:15:41.232Z,66.95
2023-03-05T07:17:01.765Z,66.39
2023-03-05T07:19:42.220Z,66.88
2023-03-05T07:20:46.386Z,65.69
2023-03-05T07:22:45.596Z,64.86
2023-03-05T07:23:24.666Z,64.73
2023-03-05T07:24:04.777Z,65.24
2023-03-05T07:24:46.747Z,64.42
2023-03-05T07:25:38.430Z,65.43
2023-03-05T07:26:18.624Z,65.41
2023-03-05T07:27:05.685Z,65.93
2023-03-05T07:27:48.795Z,65.42
2023-03-05T07:28:32.871Z,65.39
2023-03-05T07:29:12.667Z,65.85
2023-03-05T07:29:59.540Z,66.59
2023-03-05T07:31:09.450Z,65.79
2023-03-05T07:31:49.910Z,65.32
2023-03-05T07:34:15.538Z,65.94
2023-03-05T07:34:47.264Z,66.13
2023-03-05T07:35:26.267Z,64.30
2023-03-05T07:36:31.000Z,64.83
2023-03-05T07:38:18.281Z,64.83
2023-03-05T07:38:58.669Z,64.34
2023-03-05T07:40:29.415Z,63.90
2023-03-05T07:41:14.990Z,64.51
2023-03-05T07:42:32.849Z,64.81
2023-03-05T07:43:21.612Z,63.10
2023-03-05T07:44:10.490Z,63.28
2023-03-05T07:44:57.511Z,62.95
2023-03-05T07:45:43.986Z,63.01
2023-03-05T07:46:27.771Z,63.34
2023-03-05T07:47:07.725Z,62.61
2023-03-05T07:49:20.979Z,62.39
2023-03-05T07:50:08.871Z,62.70
2023-03-05T07:50:50.978Z,63.39
2023-03-05T07:51:33.311Z,63.28
2023-03-05T07:52:21.610Z,62.63
2023-03-05T07:53:48.654Z,63.24
2023-03-05T07:54:30.633Z,64.01
2023-03-05T07:55:11.003Z,62.53
2023-03-05T07:55:53.631Z,61.56
2023-03-05T07:56:35.648Z,62.15
2023-03-05T07:57:14.766Z,61.47
2023-03-05T07:57:54.700Z,61.49
2023-03-05T07:59:14.398Z,61.56
2023-03-05T08:00:41.509Z,61.27
2023-03-05T08:01:29.436Z,62.02
2023-03-05T08:02:34.263Z,62.27
2023-03-05T08:03:16.311Z,61.81
2023-03-05T08:03:55.885Z,61.84
2023-03-05T08:04:38.961Z,61.39
2023-03-05T08:05:18.187Z,60.93
2023-03-05T08:06:06.136Z,61.75
2023-03-05T08:06:50.061Z,61.46
2023-03-05T08:08:17.448Z,60.73
2023-03-05T08:09:04.472Z,60.59
2023-03-05T08:09:43.626Z,61.11
2023-03-05T08:10:25.874Z,59.76
2023-03-05T08:11:14.721Z,59.83
2023-03-05T08:11:53.611Z,59.27
2023-03-05T08:12:40.558Z,58.77
2023-03-05T08:13:19.887Z,59.00
2023-03-05T08:14:00.656Z,59.43
2023-03-05T08:14:49.456Z,59.38
2023-03-05T08:15:28.704Z,58.95
2023-03-05T08:16:21.685Z,59.26
2023-03-05T08:17:05.667Z,57.84
2023-03-05T08:17:48.183Z,57.89
2023-03-05T08:18:27.542Z,58.08
2023-03-05T08:19:14.417Z,58.61
2023-03-05T08:19:57.725Z,58.25
2023-03-05T08:20:37.751Z,58.53
2023-03-05T08:22:35.038Z,58.21
2023-03-05T08:23:38.841Z,57.80
2023-03-05T08:24:18.371Z,57.98
2023-03-05T08:24:59.015Z,57.95
2023-03-05T08:25:41.406Z,58.43
2023-03-05T08:26:24.095Z,58.47
2023-03-05T08:27:03.453Z,56.86
2023-03-05T08:27:46.933Z,57.04
2023-03-05T08:28:51.529Z,56.84
2023-03-05T08:30:27.570Z,56.27
2023-03-05T08:31:11.859Z,55.92
2023-03-05T08:31:51.811Z,56.51
2023-03-05T08:32:40.534Z,56.03
2023-03-05T08:33:44.700Z,54.79
2023-03-05T08:34:26.243Z,55.36
2023-03-05T08:35:09.284Z,55.58
2023-03-05T08:35:56.476Z,54.18
2023-03-05T08:36:59.788Z,55.01
2023-03-05T08:37:47.852Z,54.96
2023-03-05T08:39:07.248Z,54.36
2023-03-05T08:40:11.805Z,55.56
2023-03-05T08:41:37.687Z,55.09
2023-03-05T08:42:19.651Z,55.13
2023-03-05T08:43:01.715Z,54.02
2023-03-05T08:43:41.910Z,54.23
2023-03-05T08:44:23.795Z,54.50
2023-03-05T08:45:05.202Z,54.55
2023-03-05T08:46:23.971Z,53.36
2023-03-05T08:47:41.635Z,53.58
2023-03-05T08:48:20.978Z,54.67
2023-03-05T08:49:25.230Z,53.58
2023-03-05T08:51:12.967Z,54.56
2023-03-05T08:52:34.651Z,54.29
2023-03-05T08:54:33.872Z,54.93
2023-03-05T08:55:14.288Z,54.48
2023-03-05T08:55:58.363Z,55.00
2023-03-05T08:58:21.508Z,55.52
2023-03-05T08:59:41.698Z,54.24
2023-03-05T09:01:10.542Z,52.06
2023-03-05T09:01:52.614Z,52.44
2023-03-05T09:02:40.228Z,52.04
2023-03-05T09:03:22.856Z,52.14
2023-03-05T09:05:05.150Z,52.31
2023-03-05T09:06:34.620Z,55.26
2023-03-05T09:07:13.410Z,55.99
2023-03-05T09:08:17.679Z,53.59
2023-03-05T09:08:56.456Z,53.88
2023-03-05T09:09:37.635Z,52.40
2023-03-05T09:10:25.183Z,52.99
2023-03-05T09:11:07.334Z,52.38
2023-03-05T09:11:47.752Z,52.96
2023-03-05T09:13:07.859Z,53.41
2023-03-05T09:13:47.745Z,53.53
2023-03-05T09:14:29.360Z,53.34
2023-03-05T09:15:18.655Z,51.96
2023-03-05T09:16:07.128Z,53.60
2023-03-05T09:17:11.014Z,53.35
2023-03-05T09:19:15.321Z,54.37
2023-03-05T09:20:05.096Z,52.80
2023-03-05T09:20:52.778Z,52.41
2023-03-05T09:22:51.219Z,52.72
2023-03-05T09:23:35.507Z,52.75
2023-03-05T09:25:17.264Z,53.93
2023-03-05T09:26:35.771Z,54.74
2023-03-05T09:28:34.780Z,53.10
2023-03-05T09:29:14.362Z,52.78
2023-03-05T09:29:54.662Z,52.47
2023-03-05T09:32:57.481Z,50.89
2023-03-05T09:33:44.260Z,50.52
2023-03-05T09:34:24.080Z,51.88
2023-03-05T09:35:03.980Z,50.67
2023-03-05T09:35:43.822Z,50.70
2023-03-05T09:37:52.842Z,48.65
2023-03-05T09:39:13.205Z,49.73
2023-03-05T09:40:19.087Z,50.59
2023-03-05T09:42:12.735Z,52.18
2023-03-05T09:43:53.987Z,50.32
2023-03-05T09:45:02.529Z,50.24
2023-03-05T09:46:44.067Z,50.95
2023-03-05T09:47:24.753Z,51.08
2023-03-05T09:49:00.919Z,48.44
2023-03-05T09:49:52.449Z,47.94
2023-03-05T09:50:44.964Z,48.13
2023-03-05T09:51:33.338Z,48.04
2023-03-05T09:52:15.345Z,48.68
2023-03-05T09:53:01.774Z,48.33
2023-03-05T09:54:12.828Z,47.66
2023-03-05T09:54:57.949Z,48.08
2023-03-05T09:55:52.994Z,49.55
2023-03-05T09:56:37.912Z,49.00
2023-03-05T09:59:03.636Z,46.94
2023-03-05T09:59:59.909Z,47.58
2023-03-05T10:00:50.400Z,49.61
2023-03-05T10:01:39.816Z,50.21
2023-03-05T10:02:35.358Z,49.94
2023-03-05T10:04:38.392Z,50.18
2023-03-05T10:06:01.637Z,51.21
2023-03-05T10:06:57.903Z,49.66
2023-03-05T10:08:01.651Z,49.52
2023-03-05T10:08:52.184Z,50.86
2023-03-05T10:09:43.265Z,51.37
2023-03-05T10:10:36.995Z,50.62
2023-03-05T10:11:33.268Z,49.96
2023-03-05T10:12:50.937Z,50.30
2023-03-05T10:14:43.260Z,51.17
2023-03-05T10:15:22.494Z,47.56
2023-03-05T10:16:24.526Z,49.04
2023-03-05T10:17:06.431Z,47.80
2023-03-05T10:18:13.759Z,45.93
2023-03-05T10:19:32.364Z,46.73
2023-03-05T10:20:14.391Z,47.34
2023-03-05T10:21:22.439Z,47.81
2023-03-05T10:22:14.996Z,47.35
2023-03-05T10:23:58.297Z,48.00
2023-03-05T10:24:37.760Z,47.56
2023-03-05T10:25:19.676Z,47.36
2023-03-05T10:26:05.017Z,47.71
2023-03-05T10:27:00.133Z,47.88
2023-03-05T10:27:54.172Z,47.75
2023-03-05T10:28:55.067Z,47.30
2023-03-05T10:29:55.545Z,47.55
2023-03-05T10:30:34.550Z,47.94
2023-03-05T10:31:26.576Z,47.49
2023-03-05T10:32:35.140Z,50.17
2023-03-05T10:33:25.189Z,49.36
2023-03-05T10:34:23.958Z,49.25
2023-03-05T10:35:22.657Z,51.83
2023-03-05T10:36:26.041Z,50.33
2023-03-05T10:37:55.579Z,50.67
2023-03-05T10:39:18.984Z,49.21
2023-03-05T10:40:46.786Z,50.68
2023-03-05T10:41:37.382Z,48.48
2023-03-05T10:43:20.881Z,44.72
2023-03-05T10:44:37.936Z,44.52
2023-03-05T10:45:29.487Z,47.08
2023-03-05T10:46:16.449Z,46.12
2023-03-05T10:47:06.346Z,47.39
2023-03-05T10:49:57.037Z,43.58
2023-03-05T10:51:52.364Z,46.23
2023-03-05T10:52:34.596Z,45.78
2023-03-05T10:53:37.063Z,44.29
2023-03-05T10:54:54.131Z,44.98
2023-03-05T10:55:43.654Z,44.44
2023-03-05T10:56:29.091Z,42.60
2023-03-05T10:57:24.397Z,43.40
2023-03-05T10:58:04.678Z,42.69
2023-03-05T10:58:47.096Z,42.71
2023-03-05T10:59:26.783Z,41.97
2023-03-05T11:00:05.678Z,42.45
2023-03-05T11:01:06.135Z,41.77
2023-03-05T11:02:10.365Z,41.17
2023-03-05T11:04:00.292Z,41.56
2023-03-05T11:04:40.771Z,42.02
2023-03-05T11:06:52.767Z,40.32
2023-03-05T11:07:36.011Z,40.99
2023-03-05T11:08:29.012Z,40.80
2023-03-05T11:09:48.539Z,41.11
2023-03-05T11:10:29.128Z,42.11
2023-03-05T11:12:38.574Z,43.18
2023-03-05T11:13:27.293Z,43.40
2023-03-05T11:14:30.956Z,43.48
2023-03-05T11:15:34.627Z,43.89
2023-03-05T11:18:17.623Z,45.05
2023-03-05T11:19:33.226Z,44.48
2023-03-05T11:20:27.752Z,45.36
2023-03-05T11:21:19.927Z,45.42
2023-03-05T11:23:11.923Z,45.95
2023-03-05T11:23:52.817Z,45.81
2023-03-05T11:24:34.901Z,46.77
2023-03-05T11:25:26.248Z,46.10
2023-03-05T11:26:13.480Z,46.61
2023-03-05T11:27:23.366Z,48.01
2023-03-05T11:28:02.473Z,47.35
2023-03-05T11:30:37.278Z,48.03
2023-03-05T11:31:26.372Z,47.86
2023-03-05T11:32:25.639Z,49.12
2023-03-05T11:33:20.357Z,49.49
2023-03-05T11:35:34.835Z,47.99
2023-03-05T11:36:58.172Z,48.38
2023-03-05T11:37:39.186Z,47.13
2023-03-05T11:38:18.445Z,47.79
2023-03-05T11:39:23.778Z,48.92
2023-03-05T11:40:49.758Z,50.64
2023-03-05T11:41:42.578Z,50.70
2023-03-05T11:42:45.441Z,49.57
2023-03-05T11:43:55.481Z,47.60
2023-03-05T11:44:58.287Z,48.54
2023-03-05T11:45:46.260Z,48.24
2023-03-05T11:47:42.764Z,46.11
2023-03-05T11:48:36.233Z,47.21
2023-03-05T11:49:26.805Z,46.25
2023-03-05T11:51:42.304Z,47.94
2023-03-05T11:52:39.539Z,46.91
2023-03-05T11:54:55.930Z,47.16
2023-03-05T11:55:46.348Z,46.76
2023-03-05T11:56:29.511Z,46.86
2023-03-05T11:57:15.827Z,47.13
2023-03-05T12:00:41.969Z,46.25
2023-03-05T12:01:36.232Z,47.09
2023-03-05T12:03:11.735Z,46.00
2023-03-05T12:04:04.962Z,46.41
2023-03-05T12:04:51.924Z,46.29
2023-03-05T12:05:37.431Z,45.95
2023-03-05T12:06:38.659Z,45.71
2023-03-05T12:07:35.142Z,48.19
2023-03-05T12:08:25.703Z,46.35
2023-03-05T12:09:43.600Z,46.53
2023-03-05T12:11:48.200Z,45.59
2023-03-05T12:12:27.309Z,46.06
2023-03-05T12:13:34.140Z,46.02
2023-03-05T12:15:06.232Z,46.56
2023-03-05T12:15:58.330Z,46.13
2023-03-05T12:17:14.182Z,46.81
2023-03-05T12:18:18.619Z,47.12
2023-03-05T12:19:48.591Z,45.56
2023-03-05T12:20:44.487Z,46.13
2023-03-05T12:21:34.694Z,45.97
2023-03-05T12:22:24.011Z,45.53
2023-03-05T12:23:04.016Z,46.09
2023-03-05T12:23:55.707Z,45.68
2023-03-05T12:24:38.238Z,45.24
2023-03-05T12:25:47.219Z,45.47
2023-03-05T12:27:03.693Z,47.88
2023-03-05T12:27:51.689Z,48.00
2023-03-05T12:28:31.560Z,47.62
2023-03-05T12:29:28.652Z,46.92
2023-03-05T12:30:39.454Z,45.76
2023-03-05T12:31:38.095Z,44.50
2023-03-05T12:33:47.406Z,46.73
2023-03-05T12:34:26.448Z,46.44
2023-03-05T12:35:30.262Z,45.82
2023-03-05T12:36:35.640Z,47.31
2023-03-05T12:37:56.270Z,44.63
2023-03-05T12:38:44.348Z,47.22
2023-03-05T12:39:50.416Z,46.43
2023-03-05T12:40:53.332Z,46.47
2023-03-05T12:41:37.797Z,45.33
2023-03-05T12:42:28.601Z,45.14
2023-03-05T12:43:30.393Z,46.39
2023-03-05T12:44:35.565Z,46.40
2023-03-05T12:46:23.730Z,45.65
2023-03-05T12:47:17.423Z,44.00